sensor_id;sensor_type;location;lat;lon;timestamp;temperature;humidity
31499;DHT22;18115;52.486;13.386;2023-02-23T00:01:40;4.80;99.90
31499;DHT22;18115;52.486;13.386;2023-02-23T00:04:06;5.00;99.90
31499;DHT22;18115;52.486;13.386;2023-02-23T00:06:33;4.70;99.90
31499;DHT22;18115;52.486;13.386;2023-02-23T00:09:01;4.60;99.90
31499;DHT22;18115;52.486;13.386;2023-02-23T00:11:30;4.70;99.90
31499;DHT22;18115;52.486;13.386;2023-02-23T00:13:58;5.10;99.90
31499;DHT22;18115;52.486;13.386;2023-02-23T00:16:25;4.60;99.90
31499;DHT22;18115;52.486;13.386;2023-02-23T00:18:53;4.70;99.90
31499;DHT22;18115;52.486;13.386;2023-02-23T00:21:26;4.60;99.90
31499;DHT22;18115;52.486;13.386;2023-02-23T00:24:07;4.70;99.90
31499;DHT22;18115;52.486;13.386;2023-02-23T00:26:35;4.70;99.90
31499;DHT22;18115;52.486;13.386;2023-02-23T00:29:03;4.60;99.90
31499;DHT22;18115;52.486;13.386;2023-02-23T00:31:30;4.60;99.90
31499;DHT22;18115;52.486;13.386;2023-02-23T00:33:58;4.70;99.90
31499;DHT22;18115;52.486;13.386;2023-02-23T00:36:27;4.60;99.90
31499;DHT22;18115;52.486;13.386;2023-02-23T00:38:55;4.60;99.90
31499;DHT22;18115;52.486;13.386;2023-02-23T00:41:21;4.60;99.90
31499;DHT22;18115;52.486;13.386;2023-02-23T00:43:53;4.60;99.90
31499;DHT22;18115;52.486;13.386;2023-02-23T00:46:21;4.60;99.90
31499;DHT22;18115;52.486;13.386;2023-02-23T00:48:48;4.70;99.90
31499;DHT22;18115;52.486;13.386;2023-02-23T00:51:15;4.60;99.90
31499;DHT22;18115;52.486;13.386;2023-02-23T00:53:41;5.00;99.90
31499;DHT22;18115;52.486;13.386;2023-02-23T00:56:09;4.60;99.90
31499;DHT22;18115;52.486;13.386;2023-02-23T00:58:35;4.60;99.90
31499;DHT22;18115;52.486;13.386;2023-02-23T01:01:01;5.40;99.90
31499;DHT22;18115;52.486;13.386;2023-02-23T01:03:28;4.70;99.90
31499;DHT22;18115;52.486;13.386;2023-02-23T01:06:00;4.60;99.90
31499;DHT22;18115;52.486;13.386;2023-02-23T01:08:30;4.40;99.90
31499;DHT22;18115;52.486;13.386;2023-02-23T01:10:56;4.50;99.90
31499;DHT22;18115;52.486;13.386;2023-02-23T01:13:23;4.70;99.90
31499;DHT22;18115;52.486;13.386;2023-02-23T01:15:49;4.40;99.90
31499;DHT22;18115;52.486;13.386;2023-02-23T01:18:17;4.60;99.90
31499;DHT22;18115;52.486;13.386;2023-02-23T01:20:44;4.50;99.90
31499;DHT22;18115;52.486;13.386;2023-02-23T01:23:11;4.50;99.90
31499;DHT22;18115;52.486;13.386;2023-02-23T01:25:40;4.50;99.90
31499;DHT22;18115;52.486;13.386;2023-02-23T01:28:05;4.40;99.90
31499;DHT22;18115;52.486;13.386;2023-02-23T01:30:31;4.50;99.90
31499;DHT22;18115;52.486;13.386;2023-02-23T01:32:56;4.50;99.90
31499;DHT22;18115;52.486;13.386;2023-02-23T01:35:22;5.10;99.90
31499;DHT22;18115;52.486;13.386;2023-02-23T01:37:48;4.40;99.90
31499;DHT22;18115;52.486;13.386;2023-02-23T01:42:43;4.40;99.90
31499;DHT22;18115;52.486;13.386;2023-02-23T01:45:23;5.30;99.90
31499;DHT22;18115;52.486;13.386;2023-02-23T01:47:56;4.50;99.90
31499;DHT22;18115;52.486;13.386;2023-02-23T01:50:24;4.30;99.90
31499;DHT22;18115;52.486;13.386;2023-02-23T01:52:51;4.40;99.90
31499;DHT22;18115;52.486;13.386;2023-02-23T01:55:19;4.50;99.90
31499;DHT22;18115;52.486;13.386;2023-02-23T01:58:17;4.40;99.90
31499;DHT22;18115;52.486;13.386;2023-02-23T02:00:48;4.40;99.90
31499;DHT22;18115;52.486;13.386;2023-02-23T02:03:27;4.40;99.90
31499;DHT22;18115;52.486;13.386;2023-02-23T02:05:54;4.40;99.90
31499;DHT22;18115;52.486;13.386;2023-02-23T02:08:21;4.40;99.90
31499;DHT22;18115;52.486;13.386;2023-02-23T02:10:52;4.40;99.90
31499;DHT22;18115;52.486;13.386;2023-02-23T02:13:27;4.30;99.90
31499;DHT22;18115;52.486;13.386;2023-02-23T02:27:45;4.30;99.90
31499;DHT22;18115;52.486;13.386;2023-02-23T02:41:50;3.90;99.90
31499;DHT22;18115;52.486;13.386;2023-02-23T02:44:47;4.20;99.90
31499;DHT22;18115;52.486;13.386;2023-02-23T02:47:29;4.10;99.90
31499;DHT22;18115;52.486;13.386;2023-02-23T02:50:08;4.20;99.90
31499;DHT22;18115;52.486;13.386;2023-02-23T02:52:43;4.10;99.90
31499;DHT22;18115;52.486;13.386;2023-02-23T02:55:19;4.20;99.90
31499;DHT22;18115;52.486;13.386;2023-02-23T02:57:49;4.60;99.90
31499;DHT22;18115;52.486;13.386;2023-02-23T03:00:20;4.50;99.90
31499;DHT22;18115;52.486;13.386;2023-02-23T03:03:07;4.10;99.90
31499;DHT22;18115;52.486;13.386;2023-02-23T03:05:53;4.10;99.90
31499;DHT22;18115;52.486;13.386;2023-02-23T03:08:51;4.20;99.90
31499;DHT22;18115;52.486;13.386;2023-02-23T03:12:09;4.00;99.90
31499;DHT22;18115;52.486;13.386;2023-02-23T03:15:28;3.90;99.90
31499;DHT22;18115;52.486;13.386;2023-02-23T03:21:21;4.00;99.90
31499;DHT22;18115;52.486;13.386;2023-02-23T03:24:42;4.00;99.90
31499;DHT22;18115;52.486;13.386;2023-02-23T03:30:42;4.10;99.90
31499;DHT22;18115;52.486;13.386;2023-02-23T03:33:37;4.00;99.90
31499;DHT22;18115;52.486;13.386;2023-02-23T03:36:25;3.90;99.90
31499;DHT22;18115;52.486;13.386;2023-02-23T03:39:25;3.90;99.90
31499;DHT22;18115;52.486;13.386;2023-02-23T03:42:15;3.90;99.90
31499;DHT22;18115;52.486;13.386;2023-02-23T03:45:05;3.80;99.90
31499;DHT22;18115;52.486;13.386;2023-02-23T03:47:52;3.70;99.90
31499;DHT22;18115;52.486;13.386;2023-02-23T03:50:42;3.70;99.90
31499;DHT22;18115;52.486;13.386;2023-02-23T03:53:33;3.70;99.90
31499;DHT22;18115;52.486;13.386;2023-02-23T03:56:20;3.70;99.90
31499;DHT22;18115;52.486;13.386;2023-02-23T03:59:09;3.60;99.90
31499;DHT22;18115;52.486;13.386;2023-02-23T04:01:55;3.60;99.90
31499;DHT22;18115;52.486;13.386;2023-02-23T04:04:41;3.60;99.90
31499;DHT22;18115;52.486;13.386;2023-02-23T04:07:28;3.60;99.90
31499;DHT22;18115;52.486;13.386;2023-02-23T04:10:12;3.50;99.90
31499;DHT22;18115;52.486;13.386;2023-02-23T04:13:03;3.70;99.90
31499;DHT22;18115;52.486;13.386;2023-02-23T04:15:53;3.40;99.90
31499;DHT22;18115;52.486;13.386;2023-02-23T04:18:25;3.40;99.90
31499;DHT22;18115;52.486;13.386;2023-02-23T04:20:51;3.50;99.90
31499;DHT22;18115;52.486;13.386;2023-02-23T04:23:17;3.40;99.90
31499;DHT22;18115;52.486;13.386;2023-02-23T04:25:43;4.40;99.90
31499;DHT22;18115;52.486;13.386;2023-02-23T04:28:09;3.50;99.90
31499;DHT22;18115;52.486;13.386;2023-02-23T04:30:35;3.40;99.90
31499;DHT22;18115;52.486;13.386;2023-02-23T04:33:00;3.40;99.90
31499;DHT22;18115;52.486;13.386;2023-02-23T04:35:26;3.40;99.90
31499;DHT22;18115;52.486;13.386;2023-02-23T04:37:54;3.40;99.90
31499;DHT22;18115;52.486;13.386;2023-02-23T04:40:20;3.50;99.90
31499;DHT22;18115;52.486;13.386;2023-02-23T04:42:46;3.40;99.90
31499;DHT22;18115;52.486;13.386;2023-02-23T04:45:11;3.40;99.90
31499;DHT22;18115;52.486;13.386;2023-02-23T04:47:37;3.40;99.90
31499;DHT22;18115;52.486;13.386;2023-02-23T04:50:03;3.40;99.90
31499;DHT22;18115;52.486;13.386;2023-02-23T04:52:29;3.40;99.90
31499;DHT22;18115;52.486;13.386;2023-02-23T04:54:55;3.50;99.90
31499;DHT22;18115;52.486;13.386;2023-02-23T04:57:21;3.40;99.90
31499;DHT22;18115;52.486;13.386;2023-02-23T04:59:47;3.30;99.90
31499;DHT22;18115;52.486;13.386;2023-02-23T05:02:12;3.00;99.90
31499;DHT22;18115;52.486;13.386;2023-02-23T05:04:38;3.30;99.90
31499;DHT22;18115;52.486;13.386;2023-02-23T05:07:04;3.30;99.90
31499;DHT22;18115;52.486;13.386;2023-02-23T05:09:30;3.30;99.90
31499;DHT22;18115;52.486;13.386;2023-02-23T05:11:56;3.30;99.90
31499;DHT22;18115;52.486;13.386;2023-02-23T05:19:14;3.30;99.90
31499;DHT22;18115;52.486;13.386;2023-02-23T05:28:58;3.20;99.90
31499;DHT22;18115;52.486;13.386;2023-02-23T05:33:51;3.30;99.90
31499;DHT22;18115;52.486;13.386;2023-02-23T05:36:18;3.10;99.90
31499;DHT22;18115;52.486;13.386;2023-02-23T05:38:45;3.10;99.90
31499;DHT22;18115;52.486;13.386;2023-02-23T05:41:13;3.10;99.90
31499;DHT22;18115;52.486;13.386;2023-02-23T05:43:39;3.10;99.90
31499;DHT22;18115;52.486;13.386;2023-02-23T05:46:09;3.00;99.90
31499;DHT22;18115;52.486;13.386;2023-02-23T05:48:35;3.00;99.90
31499;DHT22;18115;52.486;13.386;2023-02-23T05:51:05;3.00;99.90
31499;DHT22;18115;52.486;13.386;2023-02-23T05:53:32;2.90;99.90
31499;DHT22;18115;52.486;13.386;2023-02-23T05:55:57;2.90;99.90
31499;DHT22;18115;52.486;13.386;2023-02-23T06:05:51;2.80;99.90
31499;DHT22;18115;52.486;13.386;2023-02-23T06:08:17;2.80;99.90
31499;DHT22;18115;52.486;13.386;2023-02-23T06:15:35;2.80;99.90
31499;DHT22;18115;52.486;13.386;2023-02-23T06:25:20;2.90;99.90
31499;DHT22;18115;52.486;13.386;2023-02-23T06:27:46;3.00;99.90
31499;DHT22;18115;52.486;13.386;2023-02-23T06:30:12;2.90;99.90
31499;DHT22;18115;52.486;13.386;2023-02-23T06:32:37;2.90;99.90
31499;DHT22;18115;52.486;13.386;2023-02-23T06:35:07;2.90;99.90
31499;DHT22;18115;52.486;13.386;2023-02-23T06:37:33;2.90;99.90
31499;DHT22;18115;52.486;13.386;2023-02-23T06:47:17;3.20;99.90
31499;DHT22;18115;52.486;13.386;2023-02-23T06:57:05;3.40;99.90
31499;DHT22;18115;52.486;13.386;2023-02-23T07:06:50;3.50;99.90
31499;DHT22;18115;52.486;13.386;2023-02-23T07:09:16;3.70;99.90
31499;DHT22;18115;52.486;13.386;2023-02-23T07:14:10;3.70;99.90
31499;DHT22;18115;52.486;13.386;2023-02-23T07:16:36;3.80;99.90
31499;DHT22;18115;52.486;13.386;2023-02-23T07:21:30;3.80;99.90
31499;DHT22;18115;52.486;13.386;2023-02-23T07:23:59;3.80;99.90
31499;DHT22;18115;52.486;13.386;2023-02-23T07:36:11;4.40;99.90
31499;DHT22;18115;52.486;13.386;2023-02-23T07:41:04;4.10;99.90
31499;DHT22;18115;52.486;13.386;2023-02-23T22:41:57;6.50;99.90
31499;DHT22;18115;52.486;13.386;2023-02-23T22:44:23;6.50;99.90
31499;DHT22;18115;52.486;13.386;2023-02-23T22:46:48;6.40;99.90
31499;DHT22;18115;52.486;13.386;2023-02-23T22:51:42;6.50;99.90
31499;DHT22;18115;52.486;13.386;2023-02-23T22:56:34;6.40;99.90
31499;DHT22;18115;52.486;13.386;2023-02-23T22:59:04;6.40;99.90
31499;DHT22;18115;52.486;13.386;2023-02-23T23:01:37;6.40;99.90
31499;DHT22;18115;52.486;13.386;2023-02-23T23:04:04;6.40;99.90
31499;DHT22;18115;52.486;13.386;2023-02-23T23:06:35;6.40;99.90
31499;DHT22;18115;52.486;13.386;2023-02-23T23:09:02;6.40;99.90
31499;DHT22;18115;52.486;13.386;2023-02-23T23:13:57;6.60;99.90
31499;DHT22;18115;52.486;13.386;2023-02-23T23:16:28;6.40;99.90
31499;DHT22;18115;52.486;13.386;2023-02-23T23:19:00;6.50;99.90
31499;DHT22;18115;52.486;13.386;2023-02-23T23:21:31;6.50;99.90
31499;DHT22;18115;52.486;13.386;2023-02-23T23:24:00;6.30;99.90
31499;DHT22;18115;52.486;13.386;2023-02-23T23:26:26;6.40;99.90
31499;DHT22;18115;52.486;13.386;2023-02-23T23:28:58;6.50;99.90
31499;DHT22;18115;52.486;13.386;2023-02-23T23:31:25;6.40;99.90
31499;DHT22;18115;52.486;13.386;2023-02-23T23:33:57;6.60;99.90
31499;DHT22;18115;52.486;13.386;2023-02-23T23:36:27;6.40;99.90
31499;DHT22;18115;52.486;13.386;2023-02-23T23:41:22;6.50;99.90
31499;DHT22;18115;52.486;13.386;2023-02-23T23:43:58;6.40;99.90
31499;DHT22;18115;52.486;13.386;2023-02-23T23:46:32;6.40;99.90
31499;DHT22;18115;52.486;13.386;2023-02-23T23:49:01;6.40;99.90
31499;DHT22;18115;52.486;13.386;2023-02-23T23:51:40;6.40;99.90
31499;DHT22;18115;52.486;13.386;2023-02-23T23:54:13;6.30;99.90
31499;DHT22;18115;52.486;13.386;2023-02-23T23:56:40;4.30;99.90
31499;DHT22;18115;52.486;13.386;2023-02-23T23:59:08;6.90;99.90
